Terminal Aerodrome Forecast
Issued by NWS

Current Version | Previous Version | Text Only | Print | Product List | Glossary On
Versions: 1 2 3 4 5 6 7 8 9 10 11 12
406
FTUS45 KABQ 262321
TAFTCC
TAF
KTCC 262321Z 2700/2724 26020G30KT P6SM SCT120
     FM270200 25009KT P6SM SCT120
     FM271500 24016G26KT P6SM FEW120
     FM271900 25028G38KT P6SM FEW120=

USA.gov is the U.S. government's official web portal to all federal, state and local government web resources and services.